createdAt,value
2018-09-09T00:00:57.239Z,75.30
2018-09-09T00:03:26.243Z,76.20
2018-09-09T00:05:55.551Z,76.10
2018-09-09T00:08:24.644Z,76.30
2018-09-09T00:10:53.651Z,77.00
2018-09-09T00:13:22.732Z,77.80
2018-09-09T00:15:51.719Z,78.00
2018-09-09T00:18:20.696Z,77.10
2018-09-09T00:20:49.708Z,76.70
2018-09-09T00:23:18.702Z,76.60
2018-09-09T00:25:47.691Z,77.60
2018-09-09T00:28:16.675Z,77.90
2018-09-09T00:30:45.699Z,76.80
2018-09-09T00:33:14.876Z,77.50
2018-09-09T00:35:43.972Z,76.40
2018-09-09T00:38:12.978Z,76.60
2018-09-09T00:40:42.172Z,77.10
2018-09-09T00:43:11.152Z,79.00
2018-09-09T00:45:40.324Z,79.20
2018-09-09T00:48:09.541Z,79.40
2018-09-09T00:50:43.781Z,80.20
2018-09-09T00:53:17.940Z,80.10
2018-09-09T00:55:46.905Z,80.00
2018-09-09T00:58:15.866Z,79.60
2018-09-09T01:00:49.880Z,79.50
2018-09-09T01:03:18.848Z,79.50
2018-09-09T01:05:47.850Z,79.20
2018-09-09T01:08:16.976Z,78.80
2018-09-09T01:10:46.035Z,77.70
2018-09-09T01:13:15.120Z,79.90
2018-09-09T01:15:44.146Z,79.60
2018-09-09T01:18:13.107Z,80.80
2018-09-09T01:20:42.206Z,80.70
2018-09-09T01:23:11.232Z,80.10
2018-09-09T01:25:40.307Z,80.20
2018-09-09T01:28:09.296Z,79.60
2018-09-09T01:30:38.460Z,78.60
2018-09-09T01:33:07.480Z,80.50
2018-09-09T01:35:36.580Z,80.40
2018-09-09T01:38:05.709Z,80.90
2018-09-09T01:40:34.656Z,80.60
2018-09-09T01:43:03.660Z,80.80
2018-09-09T01:45:32.679Z,81.60
2018-09-09T01:48:01.738Z,81.50
2018-09-09T01:50:30.813Z,82.00
2018-09-09T01:52:59.858Z,82.80
2018-09-09T01:55:28.805Z,83.60
2018-09-09T01:57:57.815Z,83.40
2018-09-09T02:00:26.896Z,83.50
2018-09-09T02:02:55.877Z,82.50
2018-09-09T02:05:24.940Z,82.80
2018-09-09T02:07:54.165Z,82.40
2018-09-09T02:10:23.280Z,83.10
2018-09-09T02:12:52.271Z,82.00
2018-09-09T02:15:21.354Z,82.70
2018-09-09T02:17:50.467Z,82.70
2018-09-09T02:20:19.463Z,81.60
2018-09-09T02:22:48.477Z,83.00
2018-09-09T02:25:17.422Z,82.80
2018-09-09T02:27:46.434Z,82.90
2018-09-09T02:30:15.536Z,83.50
2018-09-09T02:32:44.628Z,83.50
2018-09-09T02:35:13.768Z,83.60
2018-09-09T02:37:42.721Z,83.10
2018-09-09T02:40:11.760Z,81.90
2018-09-09T02:42:40.793Z,81.60
2018-09-09T02:45:09.715Z,81.50
2018-09-09T02:47:38.700Z,82.70
2018-09-09T02:50:07.877Z,83.60
2018-09-09T02:52:36.868Z,84.40
2018-09-09T02:55:06.057Z,84.40
2018-09-09T02:57:35.161Z,84.20
2018-09-09T03:00:04.473Z,84.00
2018-09-09T03:02:33.451Z,85.50
2018-09-09T03:05:02.444Z,84.90
2018-09-09T03:07:31.444Z,84.60
2018-09-09T03:10:00.548Z,85.10
2018-09-09T03:12:29.756Z,84.00
2018-09-09T03:14:58.831Z,85.70
2018-09-09T03:17:27.784Z,85.70
2018-09-09T03:19:56.912Z,85.90
2018-09-09T03:22:26.000Z,85.60
2018-09-09T03:24:55.145Z,86.80
2018-09-09T03:27:24.206Z,87.50
2018-09-09T03:29:53.184Z,87.60
2018-09-09T03:32:22.296Z,87.70
2018-09-09T03:34:51.396Z,87.60
2018-09-09T03:37:20.505Z,87.90
2018-09-09T03:39:49.466Z,88.20
2018-09-09T03:42:18.464Z,87.40
2018-09-09T03:44:47.555Z,87.80
2018-09-09T03:47:16.553Z,88.40
2018-09-09T03:49:45.579Z,88.40
2018-09-09T03:52:14.539Z,87.60
2018-09-09T03:54:43.528Z,90.20
2018-09-09T03:57:12.500Z,90.40
2018-09-09T03:59:41.612Z,91.00
2018-09-09T04:02:10.644Z,91.40
2018-09-09T04:04:39.703Z,91.40
2018-09-09T04:07:08.804Z,91.40
2018-09-09T04:09:37.796Z,91.70
2018-09-09T04:12:07.103Z,91.90
2018-09-09T04:14:36.215Z,91.80
2018-09-09T04:17:05.172Z,92.50
2018-09-09T04:19:34.162Z,92.80
2018-09-09T04:22:03.280Z,93.00
2018-09-09T04:24:32.374Z,93.20
2018-09-09T04:27:01.393Z,93.00
2018-09-09T04:29:30.444Z,93.30
2018-09-09T04:31:59.439Z,93.10
2018-09-09T04:34:28.350Z,93.30
2018-09-09T04:36:57.429Z,93.50
2018-09-09T04:39:26.553Z,93.70
2018-09-09T04:41:55.519Z,93.90
2018-09-09T04:44:24.512Z,94.10
2018-09-09T04:46:53.505Z,94.10
2018-09-09T04:49:22.496Z,94.20
2018-09-09T04:51:51.655Z,94.80
2018-09-09T04:54:20.696Z,95.20
2018-09-09T04:56:49.661Z,95.00
2018-09-09T04:59:18.779Z,95.20
2018-09-09T05:01:47.892Z,95.50
2018-09-09T05:04:16.999Z,95.70
2018-09-09T05:06:46.064Z,95.60
2018-09-09T05:09:15.143Z,96.00
2018-09-09T05:11:44.345Z,96.60
2018-09-09T05:14:13.439Z,96.20
2018-09-09T05:16:42.465Z,96.80
2018-09-09T05:19:11.628Z,97.00
2018-09-09T05:21:40.722Z,97.80
2018-09-09T05:24:09.815Z,97.60
2018-09-09T05:26:38.921Z,98.20
2018-09-09T05:29:08.039Z,98.70
2018-09-09T05:31:37.107Z,98.60
2018-09-09T05:34:06.408Z,99.10
2018-09-09T05:36:35.484Z,99.00
2018-09-09T05:39:07.032Z,99.90
2018-09-09T05:41:36.073Z,99.90
2018-09-09T05:44:05.121Z,99.90
2018-09-09T05:46:34.224Z,99.90
2018-09-09T05:49:03.424Z,99.90
2018-09-09T05:51:32.534Z,99.90
2018-09-09T05:54:01.545Z,99.90
2018-09-09T05:56:30.516Z,99.90
2018-09-09T05:58:59.703Z,99.90
2018-09-09T06:01:28.826Z,99.90
2018-09-09T06:03:57.803Z,99.90
2018-09-09T06:06:27.031Z,99.90
2018-09-09T06:08:56.162Z,99.90
2018-09-09T06:11:25.286Z,99.90
2018-09-09T06:13:54.592Z,99.90
2018-09-09T06:16:23.584Z,99.90
2018-09-09T06:18:52.616Z,99.90
2018-09-09T06:21:21.653Z,99.90
2018-09-09T06:23:50.669Z,99.90
2018-09-09T06:26:19.655Z,99.90
2018-09-09T06:28:48.853Z,99.90
2018-09-09T06:31:17.960Z,99.90
2018-09-09T06:33:46.949Z,99.90
2018-09-09T06:36:16.101Z,99.90
2018-09-09T06:38:45.104Z,99.90
2018-09-09T06:41:14.215Z,99.90
2018-09-09T06:46:01.492Z,99.90
2018-09-09T06:49:25.843Z,99.90
2018-09-09T06:51:54.870Z,99.90
2018-09-09T06:54:23.997Z,99.90
2018-09-09T06:56:53.001Z,99.90
2018-09-09T06:59:22.016Z,99.90
2018-09-09T07:01:51.006Z,99.90
2018-09-09T07:04:20.144Z,99.90
2018-09-09T07:06:49.299Z,99.90
2018-09-09T07:09:18.301Z,99.90
2018-09-09T07:11:47.372Z,99.90
2018-09-09T07:14:16.276Z,99.90
2018-09-09T07:16:45.303Z,99.90
2018-09-09T07:19:14.404Z,99.90
2018-09-09T07:21:43.456Z,99.90
2018-09-09T07:24:12.613Z,99.90
2018-09-09T07:26:41.826Z,99.90
2018-09-09T07:29:10.971Z,99.90
2018-09-09T07:31:41.142Z,99.90
2018-09-09T07:34:10.202Z,99.90
2018-09-09T07:36:39.471Z,99.90
2018-09-09T07:39:08.584Z,99.90
2018-09-09T07:41:37.700Z,99.90
2018-09-09T07:44:06.951Z,99.90
2018-09-09T07:46:36.032Z,99.90
2018-09-09T07:49:05.371Z,99.90
2018-09-09T07:51:34.321Z,99.90
2018-09-09T07:54:03.446Z,99.90
2018-09-09T07:56:32.739Z,99.90
2018-09-09T07:59:01.713Z,99.90
2018-09-09T08:01:30.744Z,99.90
2018-09-09T08:03:59.812Z,99.90
2018-09-09T08:06:28.832Z,99.90
2018-09-09T08:08:57.871Z,99.90
2018-09-09T08:11:31.994Z,99.90
2018-09-09T08:14:01.081Z,99.90
2018-09-09T08:16:30.184Z,99.90
2018-09-09T08:18:59.456Z,99.90
2018-09-09T08:21:28.471Z,99.90
2018-09-09T08:23:57.911Z,99.90
2018-09-09T08:26:26.995Z,99.90
2018-09-09T08:28:56.219Z,99.90
2018-09-09T08:31:25.541Z,99.90
2018-09-09T08:33:54.896Z,99.90
2018-09-09T08:36:24.202Z,99.90
2018-09-09T08:38:53.495Z,99.70
2018-09-09T08:41:22.580Z,99.60
2018-09-09T08:43:51.671Z,99.90
2018-09-09T08:46:20.876Z,99.90
2018-09-09T08:48:49.980Z,99.90
2018-09-09T08:51:19.095Z,99.90
2018-09-09T08:53:48.274Z,99.90
2018-09-09T08:56:17.321Z,99.90
2018-09-09T08:58:46.353Z,99.90
2018-09-09T09:01:15.460Z,99.90
2018-09-09T09:03:44.633Z,99.90
2018-09-09T09:06:13.733Z,99.90
2018-09-09T09:08:42.921Z,98.10
2018-09-09T09:11:12.003Z,96.60
2018-09-09T09:13:41.254Z,97.30
2018-09-09T09:16:10.411Z,95.50
2018-09-09T09:18:39.477Z,94.30
2018-09-09T09:21:08.609Z,93.60
2018-09-09T09:23:37.767Z,94.10
2018-09-09T09:26:06.824Z,94.90
2018-09-09T09:28:36.000Z,92.80
2018-09-09T09:31:05.111Z,94.20
2018-09-09T09:33:34.093Z,93.00
2018-09-09T09:36:03.180Z,91.50
2018-09-09T09:38:32.413Z,91.00
2018-09-09T09:41:01.595Z,91.20
2018-09-09T09:43:30.595Z,90.00
2018-09-09T09:45:59.576Z,91.20
2018-09-09T09:48:28.565Z,93.40
2018-09-09T09:50:57.739Z,92.70
2018-09-09T09:53:26.991Z,92.80
2018-09-09T09:55:56.179Z,91.40
2018-09-09T09:58:25.368Z,92.30
2018-09-09T10:00:59.957Z,90.00
2018-09-09T10:03:29.184Z,89.20
2018-09-09T10:05:58.134Z,88.80
2018-09-09T10:08:27.115Z,86.60
2018-09-09T10:10:56.100Z,84.80
2018-09-09T10:13:25.234Z,88.00
2018-09-09T10:15:54.323Z,89.10
2018-09-09T10:18:23.507Z,86.10
2018-09-09T10:20:52.621Z,86.10
2018-09-09T10:23:21.711Z,84.80
2018-09-09T10:25:50.887Z,90.40
2018-09-09T10:28:20.023Z,81.70
2018-09-09T10:30:49.103Z,85.80
2018-09-09T10:33:18.087Z,85.10
2018-09-09T10:35:47.181Z,80.70
2018-09-09T10:38:16.173Z,82.20
2018-09-09T10:40:45.187Z,81.20
2018-09-09T10:43:14.241Z,80.30
2018-09-09T10:45:43.253Z,80.60
2018-09-09T10:48:12.346Z,78.20
2018-09-09T10:50:41.672Z,78.70
2018-09-09T10:53:10.776Z,78.90
2018-09-09T10:55:39.956Z,80.30
2018-09-09T10:58:09.042Z,83.80
2018-09-09T11:00:38.622Z,83.40
2018-09-09T11:03:07.764Z,84.80
2018-09-09T11:05:36.919Z,80.70
2018-09-09T11:08:06.303Z,81.60
2018-09-09T11:10:35.560Z,81.60
2018-09-09T11:13:04.764Z,81.40
2018-09-09T11:15:33.763Z,80.60
2018-09-09T11:18:02.822Z,79.10
2018-09-09T11:20:32.080Z,77.80
2018-09-09T11:23:01.187Z,79.60
2018-09-09T11:25:30.353Z,82.90
2018-09-09T11:27:59.488Z,78.40
2018-09-09T11:30:28.841Z,79.70
2018-09-09T11:32:57.982Z,78.60
2018-09-09T11:35:27.106Z,78.10
2018-09-09T11:37:56.536Z,78.50
2018-09-09T11:40:25.893Z,76.60
2018-09-09T11:42:54.978Z,76.10
2018-09-09T11:45:24.124Z,77.50
2018-09-09T11:47:53.175Z,77.90
2018-09-09T11:50:22.284Z,78.10
2018-09-09T11:52:51.283Z,75.30
2018-09-09T11:55:20.505Z,76.80
2018-09-09T11:57:49.769Z,77.60
2018-09-09T12:00:18.772Z,76.30
2018-09-09T12:02:47.958Z,72.30
2018-09-09T12:05:17.281Z,72.10
2018-09-09T12:07:46.352Z,71.20
2018-09-09T12:10:15.541Z,70.90
2018-09-09T12:12:44.651Z,68.50
2018-09-09T12:15:14.328Z,70.30
2018-09-09T12:17:43.471Z,69.30
2018-09-09T12:20:12.453Z,66.40
2018-09-09T12:22:41.652Z,66.70
2018-09-09T12:25:10.684Z,65.40
2018-09-09T12:27:38.729Z,65.50
2018-09-09T12:30:08.012Z,65.40
2018-09-09T12:32:36.259Z,64.80
2018-09-09T12:35:04.455Z,63.70
2018-09-09T12:37:32.553Z,60.20
2018-09-09T12:40:00.652Z,63.40
2018-09-09T12:42:28.706Z,61.70
2018-09-09T12:45:02.116Z,58.30
2018-09-09T12:47:35.475Z,59.40
2018-09-09T12:50:03.684Z,57.80
2018-09-09T12:52:32.031Z,57.20
2018-09-09T12:55:00.339Z,56.70
2018-09-09T12:57:28.383Z,57.20
2018-09-09T12:59:56.686Z,57.40
2018-09-09T13:02:24.746Z,56.80
2018-09-09T13:04:52.899Z,55.30
2018-09-09T13:07:21.044Z,54.80
2018-09-09T13:09:49.071Z,54.70
2018-09-09T13:12:17.125Z,55.50
2018-09-09T13:14:45.323Z,56.00
2018-09-09T13:17:13.340Z,54.30
2018-09-09T13:19:41.553Z,54.50
2018-09-09T13:22:09.729Z,54.40
2018-09-09T13:24:37.753Z,54.70
2018-09-09T13:27:05.843Z,54.30
2018-09-09T13:29:33.946Z,54.70
2018-09-09T13:32:02.002Z,53.40
2018-09-09T13:34:30.039Z,53.20
2018-09-09T13:36:58.214Z,53.40
2018-09-09T13:39:26.283Z,53.10
2018-09-09T13:41:54.456Z,53.00
2018-09-09T13:44:22.655Z,53.00
2018-09-09T13:46:51.787Z,52.50
2018-09-09T13:49:21.512Z,52.90
2018-09-09T13:51:50.816Z,52.50
2018-09-09T13:54:18.939Z,52.60
2018-09-09T13:56:47.022Z,53.90
2018-09-09T13:59:15.042Z,54.00
2018-09-09T14:01:44.031Z,52.50
2018-09-09T14:04:12.115Z,52.70
2018-09-09T14:06:40.288Z,52.90
2018-09-09T14:09:09.167Z,52.90
2018-09-09T14:11:37.435Z,51.90
2018-09-09T14:14:05.631Z,52.20
2018-09-09T14:16:34.603Z,51.40
2018-09-09T14:19:03.593Z,51.60
2018-09-09T14:21:32.725Z,51.40
2018-09-09T14:24:01.783Z,51.70
2018-09-09T14:26:30.772Z,51.40
2018-09-09T14:28:59.869Z,51.20
2018-09-09T14:31:28.856Z,51.40
2018-09-09T14:33:57.883Z,51.40
2018-09-09T14:36:26.815Z,51.40
2018-09-09T14:38:55.820Z,51.40
2018-09-09T14:41:24.908Z,51.00
2018-09-09T14:43:54.031Z,51.40
2018-09-09T14:46:23.272Z,51.00
2018-09-09T14:48:52.314Z,51.30
2018-09-09T14:51:21.407Z,51.60
2018-09-09T14:53:50.397Z,51.90
2018-09-09T14:56:19.516Z,51.80
2018-09-09T14:58:48.625Z,51.80
2018-09-09T15:01:17.881Z,51.80
2018-09-09T15:03:47.138Z,51.40
2018-09-09T15:06:16.333Z,52.00
2018-09-09T15:08:45.365Z,52.50
2018-09-09T15:11:14.434Z,52.60
2018-09-09T15:13:43.444Z,53.10
2018-09-09T15:16:12.556Z,53.20
2018-09-09T15:18:41.663Z,53.10
2018-09-09T15:21:10.970Z,53.50
2018-09-09T15:23:40.068Z,53.20
2018-09-09T15:26:09.371Z,53.20
2018-09-09T15:28:39.221Z,53.50
2018-09-09T15:31:08.374Z,53.20
2018-09-09T15:33:37.563Z,53.10
2018-09-09T15:36:07.092Z,53.40
2018-09-09T15:38:36.173Z,53.20
2018-09-09T15:41:08.937Z,53.00
2018-09-09T15:43:38.249Z,53.40
2018-09-09T15:46:07.212Z,53.10
2018-09-09T15:48:36.386Z,53.40
2018-09-09T15:51:05.520Z,53.20
2018-09-09T15:53:34.531Z,52.80
2018-09-09T15:56:03.628Z,53.50
2018-09-09T15:58:32.594Z,53.70
2018-09-09T16:01:01.585Z,53.90
2018-09-09T16:03:30.544Z,53.50
2018-09-09T16:05:59.606Z,53.40
2018-09-09T16:08:28.561Z,53.50
2018-09-09T16:10:57.560Z,53.80
2018-09-09T16:13:26.569Z,53.30
2018-09-09T16:15:55.772Z,53.60
2018-09-09T16:18:24.884Z,53.50
2018-09-09T16:20:53.949Z,53.60
2018-09-09T16:23:23.054Z,53.50
2018-09-09T16:25:52.225Z,54.40
2018-09-09T16:28:21.207Z,54.20
2018-09-09T16:30:50.441Z,54.20
2018-09-09T16:33:19.415Z,54.40
2018-09-09T16:35:48.529Z,54.30
2018-09-09T16:38:17.493Z,54.30
2018-09-09T16:40:46.480Z,54.50
2018-09-09T16:43:15.605Z,54.70
2018-09-09T16:45:44.689Z,55.20
2018-09-09T16:48:13.803Z,55.30
2018-09-09T16:50:42.973Z,55.60
2018-09-09T16:53:12.081Z,55.40
2018-09-09T16:55:41.394Z,55.70
2018-09-09T16:58:10.575Z,55.70
2018-09-09T17:00:39.684Z,55.80
2018-09-09T17:03:08.775Z,55.70
2018-09-09T17:05:37.857Z,55.70
2018-09-09T17:08:07.084Z,55.90
2018-09-09T17:10:36.070Z,56.00
2018-09-09T17:13:05.341Z,56.00
2018-09-09T17:15:34.356Z,56.30
2018-09-09T17:18:03.325Z,56.50
2018-09-09T17:20:32.238Z,56.50
2018-09-09T17:23:01.292Z,56.60
2018-09-09T17:25:30.436Z,56.60
2018-09-09T17:27:59.727Z,56.80
2018-09-09T17:30:28.784Z,56.80
2018-09-09T17:32:57.915Z,56.80
2018-09-09T17:35:26.998Z,57.00
2018-09-09T17:37:56.096Z,56.90
2018-09-09T17:40:25.202Z,56.90
2018-09-09T17:42:54.299Z,56.90
2018-09-09T17:45:23.511Z,57.00
2018-09-09T17:47:52.428Z,57.00
2018-09-09T17:50:21.564Z,57.20
2018-09-09T17:52:50.683Z,57.30
2018-09-09T17:55:19.965Z,57.20
2018-09-09T17:57:49.122Z,57.40
2018-09-09T18:00:18.302Z,57.30
2018-09-09T18:02:47.495Z,57.50
2018-09-09T18:05:16.660Z,57.60
2018-09-09T18:07:45.623Z,57.50
2018-09-09T18:10:14.692Z,58.20
2018-09-09T18:12:43.942Z,57.70
2018-09-09T18:15:13.144Z,57.70
2018-09-09T18:17:42.354Z,57.70
2018-09-09T18:20:11.441Z,57.50
2018-09-09T18:22:40.575Z,57.60
2018-09-09T18:25:09.814Z,57.80
2018-09-09T18:27:39.020Z,58.00
2018-09-09T18:30:08.605Z,58.60
2018-09-09T18:32:37.822Z,58.10
2018-09-09T18:35:07.177Z,58.10
2018-09-09T18:37:36.395Z,58.20
2018-09-09T18:40:05.711Z,58.30
2018-09-09T18:42:34.901Z,58.00
2018-09-09T18:45:04.300Z,57.80
2018-09-09T18:47:33.333Z,58.30
2018-09-09T18:50:02.518Z,58.20
2018-09-09T18:52:31.692Z,58.50
2018-09-09T18:55:00.899Z,58.70
2018-09-09T18:57:30.205Z,58.60
2018-09-09T18:59:59.418Z,58.50
2018-09-09T19:02:28.699Z,59.00
2018-09-09T19:04:57.946Z,58.90
2018-09-09T19:07:27.243Z,59.10
2018-09-09T19:09:56.330Z,58.90
2018-09-09T19:12:25.696Z,59.30
2018-09-09T19:14:54.991Z,59.50
2018-09-09T19:17:24.320Z,59.90
2018-09-09T19:19:52.371Z,60.20
2018-09-09T19:22:20.467Z,60.40
2018-09-09T19:24:48.614Z,60.60
2018-09-09T19:27:16.698Z,60.10
2018-09-09T19:29:45.903Z,59.90
2018-09-09T19:32:14.063Z,60.10
2018-09-09T19:34:42.159Z,60.60
2018-09-09T19:37:10.548Z,59.90
2018-09-09T19:39:38.585Z,60.70
2018-09-09T19:44:36.584Z,60.40
2018-09-09T19:47:05.765Z,62.70
2018-09-09T19:49:34.752Z,63.20
2018-09-09T19:52:02.971Z,62.90
2018-09-09T19:54:31.133Z,62.90
2018-09-09T20:01:55.529Z,60.30
2018-09-09T20:04:24.851Z,62.00
2018-09-09T20:06:54.015Z,62.60
2018-09-09T20:09:23.128Z,63.50
2018-09-09T20:11:52.284Z,63.90
2018-09-09T20:14:20.418Z,63.90
2018-09-09T20:16:48.488Z,64.00
2018-09-09T20:19:16.559Z,63.60
2018-09-09T20:21:44.645Z,64.40
2018-09-09T20:24:13.550Z,63.90
2018-09-09T20:26:42.581Z,63.90
2018-09-09T20:29:11.569Z,64.50
2018-09-09T20:31:40.659Z,65.50
2018-09-09T20:34:09.658Z,64.60
2018-09-09T20:36:38.739Z,64.50
2018-09-09T20:39:07.980Z,64.60
2018-09-09T20:41:36.007Z,64.80
2018-09-09T20:44:04.537Z,64.70
2018-09-09T20:46:32.716Z,65.60
2018-09-09T20:49:00.777Z,64.70
2018-09-09T20:51:28.851Z,64.90
2018-09-09T20:53:57.027Z,65.00
2018-09-09T20:56:25.106Z,64.90
2018-09-09T20:58:53.269Z,64.70
2018-09-09T21:01:21.544Z,65.10
2018-09-09T21:03:49.718Z,65.50
2018-09-09T21:06:17.771Z,66.20
2018-09-09T21:08:45.961Z,66.80
2018-09-09T21:11:14.041Z,67.30
2018-09-09T21:13:42.089Z,67.40
2018-09-09T21:16:10.171Z,67.00
2018-09-09T21:18:39.411Z,66.90
2018-09-09T21:21:08.507Z,67.20
2018-09-09T21:23:37.610Z,67.50
2018-09-09T21:26:07.042Z,67.80
2018-09-09T21:28:36.108Z,67.90
2018-09-09T21:31:04.367Z,67.80
2018-09-09T21:33:32.394Z,68.70
2018-09-09T21:36:00.479Z,68.40
2018-09-09T21:38:28.646Z,68.50
2018-09-09T21:40:56.822Z,68.50
2018-09-09T21:43:24.891Z,68.40
2018-09-09T21:45:52.936Z,68.30
2018-09-09T21:48:21.037Z,68.50
2018-09-09T21:50:49.575Z,69.00
2018-09-09T21:53:17.677Z,68.80
2018-09-09T21:55:45.862Z,69.30
2018-09-09T21:58:15.091Z,68.30
2018-09-09T22:00:49.131Z,69.30
2018-09-09T22:03:18.220Z,69.60
2018-09-09T22:05:47.172Z,70.00
2018-09-09T22:08:16.279Z,70.80
2018-09-09T22:10:45.382Z,70.60
2018-09-09T22:13:14.493Z,70.30
2018-09-09T22:15:43.575Z,70.20
2018-09-09T22:18:12.650Z,70.50
2018-09-09T22:20:41.768Z,69.60
2018-09-09T22:23:10.940Z,70.50
2018-09-09T22:25:40.069Z,71.60
2018-09-09T22:28:09.250Z,71.60
2018-09-09T22:30:38.347Z,71.70
2018-09-09T22:33:07.571Z,71.70
2018-09-09T22:35:36.623Z,72.80
2018-09-09T22:38:05.703Z,72.30
2018-09-09T22:40:34.931Z,72.10
2018-09-09T22:43:03.937Z,73.30
2018-09-09T22:45:32.895Z,73.60
2018-09-09T22:48:01.915Z,73.80
2018-09-09T22:50:30.976Z,74.60
2018-09-09T22:53:00.192Z,74.30
2018-09-09T22:55:29.430Z,74.20
2018-09-09T22:57:58.580Z,73.80
2018-09-09T23:00:27.671Z,73.90
2018-09-09T23:02:56.679Z,73.40
2018-09-09T23:05:25.595Z,72.70
2018-09-09T23:07:54.599Z,73.70
2018-09-09T23:10:23.655Z,73.40
2018-09-09T23:12:52.851Z,73.40
2018-09-09T23:15:27.204Z,72.60
2018-09-09T23:17:56.432Z,72.90
2018-09-09T23:20:25.620Z,74.80
2018-09-09T23:22:54.640Z,74.50
2018-09-09T23:25:24.133Z,73.70
2018-09-09T23:27:53.499Z,74.40
2018-09-09T23:30:22.462Z,74.70
2018-09-09T23:32:51.479Z,74.30
2018-09-09T23:35:20.537Z,75.50
2018-09-09T23:37:49.523Z,75.50
2018-09-09T23:40:18.537Z,75.00
2018-09-09T23:42:47.615Z,74.60
2018-09-09T23:45:16.748Z,74.40
2018-09-09T23:47:45.904Z,74.60
2018-09-09T23:50:15.007Z,74.20
2018-09-09T23:52:44.008Z,74.20
2018-09-09T23:55:13.003Z,74.10
2018-09-09T23:57:42.012Z,73.60
